createdAt,value
2019-01-29T00:01:39.272Z,91.60
2019-01-29T00:04:08.919Z,91.60
2019-01-29T00:06:38.520Z,91.50
2019-01-29T00:09:08.569Z,91.70
2019-01-29T00:11:38.235Z,91.70
2019-01-29T00:14:08.390Z,91.80
2019-01-29T00:16:38.054Z,91.90
2019-01-29T00:19:07.674Z,92.00
2019-01-29T00:21:37.364Z,92.10
2019-01-29T00:24:07.124Z,92.00
2019-01-29T00:26:36.738Z,92.00
2019-01-29T00:29:06.454Z,92.20
2019-01-29T00:31:36.112Z,92.40
2019-01-29T00:34:05.918Z,92.30
2019-01-29T00:36:35.518Z,92.40
2019-01-29T00:39:07.454Z,92.50
2019-01-29T00:41:37.064Z,92.60
2019-01-29T00:44:06.820Z,92.80
2019-01-29T00:46:36.523Z,92.80
2019-01-29T00:49:06.190Z,92.90
2019-01-29T00:51:35.995Z,92.90
2019-01-29T00:54:05.516Z,92.90
2019-01-29T00:56:35.176Z,93.00
2019-01-29T00:59:04.900Z,92.90
2019-01-29T01:01:34.524Z,92.90
2019-01-29T01:04:04.498Z,92.90
2019-01-29T01:06:34.168Z,92.90
2019-01-29T01:09:05.306Z,92.90
2019-01-29T01:11:34.957Z,92.90
2019-01-29T01:14:04.818Z,92.90
2019-01-29T01:16:34.674Z,92.90
2019-01-29T01:19:04.509Z,92.90
2019-01-29T01:21:34.092Z,92.90
2019-01-29T01:24:03.781Z,93.10
2019-01-29T01:26:33.464Z,93.20
2019-01-29T01:29:03.104Z,93.20
2019-01-29T01:31:32.799Z,93.20
2019-01-29T01:34:02.407Z,93.10
2019-01-29T01:36:32.056Z,93.20
2019-01-29T01:39:01.664Z,93.30
2019-01-29T01:41:31.371Z,93.30
2019-01-29T01:44:00.943Z,93.10
2019-01-29T01:46:30.514Z,93.10
2019-01-29T01:49:00.096Z,93.20
2019-01-29T01:51:29.688Z,93.30
2019-01-29T01:53:59.288Z,93.20
2019-01-29T01:56:28.902Z,93.10
2019-01-29T01:58:58.543Z,93.10
2019-01-29T02:01:28.133Z,93.00
2019-01-29T02:03:57.718Z,93.10
2019-01-29T02:06:27.304Z,93.20
2019-01-29T02:08:56.943Z,93.20
2019-01-29T02:11:26.528Z,93.10
2019-01-29T02:13:56.188Z,93.10
2019-01-29T02:16:25.776Z,93.20
2019-01-29T02:18:55.344Z,93.30
2019-01-29T02:21:24.944Z,93.30
2019-01-29T02:23:54.526Z,93.20
2019-01-29T02:26:24.144Z,93.00
2019-01-29T02:28:53.728Z,93.10
2019-01-29T02:31:23.295Z,93.00
2019-01-29T02:33:52.995Z,93.00
2019-01-29T02:36:22.557Z,93.00
2019-01-29T02:38:52.173Z,93.10
2019-01-29T02:41:21.826Z,93.10
2019-01-29T02:43:51.402Z,93.10
2019-01-29T02:46:21.031Z,93.40
2019-01-29T02:48:50.670Z,93.10
2019-01-29T02:51:20.274Z,93.20
2019-01-29T02:53:49.896Z,93.20
2019-01-29T02:56:19.476Z,93.20
2019-01-29T02:58:49.148Z,93.20
2019-01-29T03:01:18.768Z,93.20
2019-01-29T03:03:48.429Z,93.20
2019-01-29T03:06:18.486Z,93.10
2019-01-29T03:08:48.077Z,92.90
2019-01-29T03:11:17.678Z,92.90
2019-01-29T03:13:47.300Z,93.00
2019-01-29T03:16:16.880Z,93.10
2019-01-29T03:18:46.472Z,92.90
2019-01-29T03:21:16.064Z,92.90
2019-01-29T03:23:45.721Z,92.90
2019-01-29T03:26:15.302Z,92.90
2019-01-29T03:28:44.876Z,92.80
2019-01-29T03:31:14.475Z,92.70
2019-01-29T03:33:44.064Z,92.60
2019-01-29T03:36:13.741Z,92.20
2019-01-29T03:38:44.393Z,90.90
2019-01-29T03:41:14.035Z,91.00
2019-01-29T03:43:43.688Z,90.70
2019-01-29T03:46:13.282Z,90.90
2019-01-29T03:48:42.915Z,90.80
2019-01-29T03:51:12.522Z,90.90
2019-01-29T03:53:43.198Z,90.70
2019-01-29T03:56:12.791Z,90.60
2019-01-29T03:58:42.373Z,90.40
2019-01-29T04:01:11.961Z,89.60
2019-01-29T04:03:41.561Z,87.40
2019-01-29T04:06:11.239Z,87.90
2019-01-29T04:08:40.825Z,88.20
2019-01-29T04:11:10.474Z,88.00
2019-01-29T04:13:40.065Z,88.20
2019-01-29T04:16:09.740Z,87.30
2019-01-29T04:18:39.325Z,87.30
2019-01-29T04:21:08.936Z,87.30
2019-01-29T04:23:47.126Z,87.30
2019-01-29T04:26:09.939Z,86.10
2019-01-29T04:28:39.545Z,86.30
2019-01-29T04:31:09.198Z,86.40
2019-01-29T04:33:38.853Z,85.70
2019-01-29T04:36:08.480Z,85.60
2019-01-29T04:38:38.112Z,86.40
2019-01-29T04:41:07.774Z,87.90
2019-01-29T04:43:37.443Z,87.00
2019-01-29T04:46:07.156Z,86.60
2019-01-29T04:48:36.945Z,86.40
2019-01-29T04:51:07.970Z,86.80
2019-01-29T04:53:38.969Z,86.00
2019-01-29T04:56:09.094Z,86.30
2019-01-29T04:58:38.757Z,86.50
2019-01-29T05:01:08.371Z,86.00
2019-01-29T05:03:37.939Z,86.70
2019-01-29T05:06:07.639Z,87.40
2019-01-29T05:08:37.346Z,86.60
2019-01-29T05:11:06.985Z,86.30
2019-01-29T05:13:36.692Z,86.60
2019-01-29T05:16:06.280Z,86.60
2019-01-29T05:18:35.972Z,86.60
2019-01-29T05:21:05.585Z,86.20
2019-01-29T05:23:36.726Z,87.20
2019-01-29T05:26:06.425Z,86.50
2019-01-29T05:28:36.420Z,86.50
2019-01-29T05:31:06.210Z,86.50
2019-01-29T05:33:35.869Z,86.10
2019-01-29T05:36:05.672Z,85.90
2019-01-29T05:38:35.273Z,85.90
2019-01-29T05:41:04.967Z,85.40
2019-01-29T05:43:34.542Z,84.20
2019-01-29T05:46:04.588Z,83.80
2019-01-29T05:48:34.172Z,84.70
2019-01-29T05:51:03.890Z,85.10
2019-01-29T05:53:33.568Z,84.70
2019-01-29T05:56:03.154Z,84.00
2019-01-29T05:58:32.855Z,84.30
2019-01-29T06:01:02.514Z,84.20
2019-01-29T06:03:32.136Z,83.90
2019-01-29T06:06:01.825Z,83.30
2019-01-29T06:08:31.413Z,84.10
2019-01-29T06:11:01.103Z,83.80
2019-01-29T06:13:30.704Z,83.10
2019-01-29T06:16:00.372Z,83.50
2019-01-29T06:18:31.663Z,84.10
2019-01-29T06:21:01.341Z,84.20
2019-01-29T06:23:31.021Z,84.20
2019-01-29T06:26:00.609Z,84.00
2019-01-29T06:28:30.289Z,84.30
2019-01-29T06:30:59.923Z,84.10
2019-01-29T06:33:29.559Z,84.00
2019-01-29T06:35:59.230Z,84.30
2019-01-29T06:38:28.844Z,84.10
2019-01-29T06:40:58.523Z,83.30
2019-01-29T06:43:28.122Z,83.10
2019-01-29T06:45:57.663Z,83.20
2019-01-29T06:48:27.266Z,82.90
2019-01-29T06:50:56.940Z,82.90
2019-01-29T06:53:26.544Z,82.70
2019-01-29T06:55:56.148Z,82.10
2019-01-29T06:58:25.823Z,82.40
2019-01-29T07:00:55.434Z,81.90
2019-01-29T07:03:25.108Z,82.00
2019-01-29T07:05:54.700Z,82.20
2019-01-29T07:08:24.417Z,82.70
2019-01-29T07:10:54.113Z,82.90
2019-01-29T07:13:23.736Z,82.80
2019-01-29T07:16:06.812Z,82.70
2019-01-29T07:18:38.057Z,82.20
2019-01-29T07:21:09.519Z,82.00
2019-01-29T07:23:40.506Z,82.30
2019-01-29T07:26:10.276Z,82.40
2019-01-29T07:28:39.968Z,82.60
2019-01-29T07:31:09.720Z,82.10
2019-01-29T07:33:39.368Z,81.90
2019-01-29T07:36:09.080Z,81.60
2019-01-29T07:38:38.723Z,81.90
2019-01-29T07:41:08.414Z,82.10
2019-01-29T07:43:38.077Z,81.60
2019-01-29T07:46:07.740Z,82.30
2019-01-29T07:48:37.419Z,82.30
2019-01-29T07:51:07.035Z,82.40
2019-01-29T07:53:36.624Z,82.70
2019-01-29T07:56:06.322Z,82.70
2019-01-29T07:58:35.978Z,82.40
2019-01-29T08:01:05.642Z,82.30
2019-01-29T08:03:38.256Z,82.50
2019-01-29T08:06:06.545Z,82.60
2019-01-29T08:08:36.174Z,82.60
2019-01-29T08:11:05.920Z,83.00
2019-01-29T08:13:35.606Z,82.90
2019-01-29T08:16:05.220Z,83.10
2019-01-29T08:18:34.826Z,82.90
2019-01-29T08:21:04.514Z,82.70
2019-01-29T08:23:34.163Z,83.00
2019-01-29T08:26:03.840Z,82.80
2019-01-29T08:28:33.541Z,82.50
2019-01-29T08:31:03.252Z,82.30
2019-01-29T08:33:32.954Z,82.30
2019-01-29T08:36:02.652Z,82.50
2019-01-29T08:38:32.893Z,82.70
2019-01-29T08:41:04.418Z,82.50
2019-01-29T08:43:33.917Z,82.40
2019-01-29T08:46:03.562Z,82.30
2019-01-29T08:48:33.288Z,82.10
2019-01-29T08:51:03.807Z,81.90
2019-01-29T08:53:33.560Z,81.40
2019-01-29T08:56:03.182Z,81.60
2019-01-29T08:58:32.778Z,81.90
2019-01-29T09:01:02.381Z,81.60
2019-01-29T09:03:33.105Z,81.20
2019-01-29T09:06:02.769Z,81.30
2019-01-29T09:08:32.353Z,81.40
2019-01-29T09:11:02.060Z,81.50
2019-01-29T09:13:31.736Z,81.00
2019-01-29T09:16:01.406Z,81.30
2019-01-29T09:18:31.091Z,81.20
2019-01-29T09:21:00.762Z,81.40
2019-01-29T09:23:30.373Z,81.40
2019-01-29T09:26:00.043Z,81.10
2019-01-29T09:28:29.650Z,81.30
2019-01-29T09:30:59.364Z,81.10
2019-01-29T09:33:29.012Z,81.10
2019-01-29T09:35:58.691Z,80.60
2019-01-29T09:38:28.462Z,81.20
2019-01-29T09:40:58.117Z,81.10
2019-01-29T09:43:27.818Z,81.10
2019-01-29T09:45:58.653Z,81.20
2019-01-29T09:48:28.266Z,80.90
2019-01-29T09:50:57.926Z,80.70
2019-01-29T09:53:27.601Z,80.20
2019-01-29T09:55:57.280Z,80.40
2019-01-29T09:58:28.022Z,80.70
2019-01-29T10:00:59.017Z,80.70
2019-01-29T10:03:28.738Z,79.90
2019-01-29T10:05:59.335Z,79.80
2019-01-29T10:08:28.948Z,80.20
2019-01-29T10:10:58.597Z,80.40
2019-01-29T10:13:28.269Z,80.90
2019-01-29T10:15:58.000Z,80.80
2019-01-29T10:18:27.748Z,79.90
2019-01-29T10:20:57.460Z,80.00
2019-01-29T10:23:27.113Z,80.20
2019-01-29T10:25:56.707Z,80.20
2019-01-29T10:28:26.330Z,80.10
2019-01-29T10:30:55.922Z,80.40
2019-01-29T10:33:25.539Z,80.30
2019-01-29T10:35:55.215Z,80.10
2019-01-29T10:38:24.885Z,80.40
2019-01-29T10:40:55.227Z,79.70
2019-01-29T10:43:24.899Z,79.60
2019-01-29T10:45:54.493Z,79.60
2019-01-29T10:48:24.133Z,80.00
2019-01-29T10:50:53.750Z,79.00
2019-01-29T10:53:23.427Z,79.70
2019-01-29T10:55:53.039Z,78.70
2019-01-29T10:58:22.802Z,78.90
2019-01-29T11:00:52.494Z,78.60
2019-01-29T11:03:22.985Z,78.60
2019-01-29T11:05:55.269Z,79.40
2019-01-29T11:08:25.007Z,79.20
2019-01-29T11:10:54.791Z,78.20
2019-01-29T11:13:24.380Z,78.40
2019-01-29T11:15:53.985Z,79.00
2019-01-29T11:18:23.661Z,78.90
2019-01-29T11:20:53.651Z,79.10
2019-01-29T11:23:23.396Z,78.60
2019-01-29T11:25:56.120Z,78.60
2019-01-29T11:28:24.386Z,78.40
2019-01-29T11:30:54.124Z,78.60
2019-01-29T11:33:23.730Z,78.40
2019-01-29T11:35:53.338Z,78.00
2019-01-29T11:38:23.001Z,78.20
2019-01-29T11:40:52.690Z,76.80
2019-01-29T11:43:22.330Z,77.50
2019-01-29T11:45:52.059Z,76.80
2019-01-29T11:48:21.654Z,76.80
2019-01-29T11:50:51.316Z,76.80
2019-01-29T11:53:20.920Z,76.70
2019-01-29T11:55:50.637Z,76.30
2019-01-29T11:58:20.440Z,75.10
2019-01-29T12:00:51.727Z,76.20
2019-01-29T12:03:21.363Z,75.60
2019-01-29T12:05:51.041Z,73.90
2019-01-29T12:08:20.964Z,74.50
2019-01-29T12:10:50.594Z,75.80
2019-01-29T12:13:20.200Z,75.30
2019-01-29T12:15:49.856Z,74.80
2019-01-29T12:18:19.562Z,73.80
2019-01-29T12:20:49.167Z,74.70
2019-01-29T12:23:18.757Z,75.70
2019-01-29T12:25:48.414Z,74.50
2019-01-29T12:28:18.004Z,74.60
2019-01-29T12:30:47.660Z,74.50
2019-01-29T12:33:17.835Z,73.70
2019-01-29T12:35:47.451Z,74.10
2019-01-29T12:38:17.186Z,74.90
2019-01-29T12:40:46.897Z,75.30
2019-01-29T12:43:16.488Z,75.30
2019-01-29T12:45:48.161Z,75.10
2019-01-29T12:48:18.041Z,75.10
2019-01-29T12:50:49.292Z,74.90
2019-01-29T12:53:19.960Z,74.10
2019-01-29T12:55:49.697Z,74.90
2019-01-29T12:58:19.476Z,75.30
2019-01-29T13:00:50.694Z,74.90
2019-01-29T13:03:20.319Z,73.30
2019-01-29T13:05:50.327Z,74.40
2019-01-29T13:08:20.019Z,74.20
2019-01-29T13:10:49.777Z,75.50
2019-01-29T13:13:19.437Z,74.80
2019-01-29T13:15:49.052Z,74.90
2019-01-29T13:18:18.700Z,74.90
2019-01-29T13:20:49.271Z,74.30
2019-01-29T13:23:18.927Z,74.40
2019-01-29T13:25:48.536Z,74.50
2019-01-29T13:28:18.175Z,74.60
2019-01-29T13:30:48.286Z,74.40
2019-01-29T13:33:17.916Z,74.80
2019-01-29T13:35:47.627Z,74.90
2019-01-29T13:38:17.315Z,74.30
2019-01-29T13:40:46.917Z,75.70
2019-01-29T13:43:16.556Z,75.30
2019-01-29T13:45:47.432Z,75.50
2019-01-29T13:48:17.243Z,75.80
2019-01-29T13:50:49.648Z,75.80
2019-01-29T13:53:19.391Z,75.60
2019-01-29T13:55:49.004Z,75.80
2019-01-29T13:58:18.742Z,75.70
2019-01-29T14:00:48.427Z,74.90
2019-01-29T14:03:18.694Z,75.80
2019-01-29T14:05:49.520Z,76.00
2019-01-29T14:08:19.203Z,76.00
2019-01-29T14:10:48.896Z,76.00
2019-01-29T14:13:18.529Z,76.00
2019-01-29T14:15:49.751Z,76.00
2019-01-29T14:18:19.754Z,76.00
2019-01-29T14:20:49.420Z,75.90
2019-01-29T14:23:19.126Z,75.70
2019-01-29T14:25:48.881Z,75.90
2019-01-29T14:28:18.643Z,75.90
2019-01-29T14:30:48.633Z,75.80
2019-01-29T14:33:18.415Z,75.80
2019-01-29T14:35:48.075Z,75.90
2019-01-29T14:38:29.566Z,75.90
2019-01-29T14:41:00.708Z,75.80
2019-01-29T14:43:33.562Z,75.80
2019-01-29T14:46:03.221Z,75.80
2019-01-29T14:48:32.890Z,75.70
2019-01-29T14:51:02.561Z,75.70
2019-01-29T14:53:32.145Z,75.70
2019-01-29T14:56:01.850Z,75.70
2019-01-29T14:58:31.838Z,75.70
2019-01-29T15:01:01.578Z,75.60
2019-01-29T15:03:31.166Z,75.60
2019-01-29T15:06:00.788Z,75.60
2019-01-29T15:08:30.392Z,75.60
2019-01-29T15:11:00.058Z,75.70
2019-01-29T15:13:29.679Z,75.60
2019-01-29T15:16:03.882Z,75.60
2019-01-29T15:18:35.113Z,75.60
2019-01-29T15:21:04.713Z,75.60
2019-01-29T15:23:34.426Z,75.60
2019-01-29T15:26:04.014Z,75.60
2019-01-29T15:28:33.604Z,75.60
2019-01-29T15:31:04.141Z,75.60
2019-01-29T15:33:33.821Z,75.90
2019-01-29T15:36:03.578Z,75.60
2019-01-29T15:38:33.227Z,75.80
2019-01-29T15:41:02.931Z,75.80
2019-01-29T15:43:32.532Z,75.80
2019-01-29T15:46:02.301Z,75.80
2019-01-29T15:48:31.967Z,76.00
2019-01-29T15:51:01.611Z,75.40
2019-01-29T15:53:31.213Z,75.70
2019-01-29T15:56:00.800Z,75.40
2019-01-29T15:58:30.404Z,75.40
2019-01-29T16:01:00.162Z,75.60
2019-01-29T16:03:29.819Z,75.30
2019-01-29T16:05:59.590Z,75.30
2019-01-29T16:08:29.183Z,75.60
2019-01-29T16:10:58.806Z,75.30
2019-01-29T16:13:28.389Z,75.70
2019-01-29T16:15:58.063Z,75.70
2019-01-29T16:18:27.674Z,75.80
2019-01-29T16:20:57.354Z,75.80
2019-01-29T16:23:27.020Z,75.80
2019-01-29T16:25:56.686Z,75.80
2019-01-29T16:28:26.289Z,75.90
2019-01-29T16:30:55.880Z,75.70
2019-01-29T16:33:25.513Z,76.50
2019-01-29T16:35:55.173Z,76.00
2019-01-29T16:38:24.791Z,75.90
2019-01-29T16:41:00.414Z,76.20
2019-01-29T16:43:25.786Z,76.10
2019-01-29T16:45:55.474Z,76.30
2019-01-29T16:48:25.059Z,76.00
2019-01-29T16:50:54.669Z,76.00
2019-01-29T16:53:24.350Z,76.10
2019-01-29T16:55:53.954Z,76.10
2019-01-29T16:58:23.617Z,76.10
2019-01-29T17:00:53.254Z,76.30
2019-01-29T17:03:22.784Z,76.20
2019-01-29T17:05:52.447Z,76.10
2019-01-29T17:08:22.174Z,76.30
2019-01-29T17:10:51.798Z,76.10
2019-01-29T17:13:21.434Z,77.00
2019-01-29T17:15:51.074Z,76.30
2019-01-29T17:18:20.654Z,76.50
2019-01-29T17:20:50.386Z,76.30
2019-01-29T17:23:20.031Z,76.20
2019-01-29T17:25:49.672Z,76.40
2019-01-29T17:28:19.328Z,76.30
2019-01-29T17:30:49.107Z,76.40
2019-01-29T17:33:18.929Z,76.50
2019-01-29T17:35:48.547Z,76.40
2019-01-29T17:38:18.220Z,76.50
2019-01-29T17:40:47.825Z,76.50
2019-01-29T17:43:17.461Z,76.60
2019-01-29T17:45:49.705Z,76.50
2019-01-29T17:48:19.431Z,76.60
2019-01-29T17:50:49.205Z,76.50
2019-01-29T17:53:19.381Z,76.10
2019-01-29T17:55:49.108Z,76.00
2019-01-29T17:58:18.781Z,75.70
2019-01-29T18:00:50.052Z,76.00
2019-01-29T18:03:19.826Z,76.20
2019-01-29T18:05:49.564Z,76.20
2019-01-29T18:08:19.226Z,75.60
2019-01-29T18:10:48.842Z,76.00
2019-01-29T18:13:18.579Z,75.90
2019-01-29T18:15:48.258Z,75.50
2019-01-29T18:18:17.879Z,75.50
2019-01-29T18:20:47.450Z,76.50
2019-01-29T18:23:17.144Z,75.80
2019-01-29T18:25:46.800Z,75.80
2019-01-29T18:28:16.590Z,75.80
2019-01-29T18:30:46.299Z,76.00
2019-01-29T18:33:15.993Z,76.00
2019-01-29T18:35:45.709Z,76.40
2019-01-29T18:38:15.297Z,76.30
2019-01-29T18:40:48.689Z,76.20
2019-01-29T18:43:18.447Z,76.20
2019-01-29T18:45:48.085Z,76.20
2019-01-29T18:48:17.759Z,76.40
2019-01-29T18:50:47.504Z,76.60
2019-01-29T18:53:17.145Z,76.50
2019-01-29T18:55:46.874Z,76.30
2019-01-29T18:58:16.915Z,76.30
2019-01-29T19:00:54.353Z,76.40
2019-01-29T19:03:17.964Z,76.70
2019-01-29T19:05:47.569Z,76.70
2019-01-29T19:08:17.254Z,76.60
2019-01-29T19:10:46.900Z,77.40
2019-01-29T19:13:16.543Z,76.70
2019-01-29T19:15:46.276Z,76.90
2019-01-29T19:18:16.001Z,77.00
2019-01-29T19:20:45.687Z,77.10
2019-01-29T19:23:15.440Z,77.20
2019-01-29T19:25:45.151Z,77.30
2019-01-29T19:28:21.727Z,77.00
2019-01-29T19:30:46.873Z,76.70
2019-01-29T19:33:16.649Z,76.80
2019-01-29T19:35:46.309Z,76.80
2019-01-29T19:38:16.647Z,76.90
2019-01-29T19:40:46.327Z,77.00
2019-01-29T19:43:16.127Z,76.90
2019-01-29T19:45:45.693Z,76.90
2019-01-29T19:48:15.316Z,77.10
2019-01-29T19:50:45.327Z,77.20
2019-01-29T19:53:15.072Z,77.10
2019-01-29T19:55:44.880Z,77.00
2019-01-29T19:58:14.548Z,76.80
2019-01-29T20:00:44.326Z,77.00
2019-01-29T20:03:13.899Z,77.20
2019-01-29T20:05:43.713Z,77.00
2019-01-29T20:08:13.418Z,77.20
2019-01-29T20:10:42.988Z,77.20
2019-01-29T20:13:12.610Z,77.30
2019-01-29T20:15:43.741Z,77.50
2019-01-29T20:18:13.390Z,77.80
2019-01-29T20:20:42.972Z,77.50
2019-01-29T20:23:12.646Z,77.30
2019-01-29T20:25:42.400Z,77.30
2019-01-29T20:28:12.105Z,77.30
2019-01-29T20:30:42.007Z,77.50
2019-01-29T20:33:11.705Z,77.90
2019-01-29T20:35:41.385Z,78.00
2019-01-29T20:38:11.005Z,77.80
2019-01-29T20:40:40.786Z,77.90
2019-01-29T20:43:10.444Z,77.90
2019-01-29T20:45:40.151Z,77.80
2019-01-29T20:48:09.835Z,77.60
2019-01-29T20:50:40.506Z,77.60
2019-01-29T20:53:10.095Z,77.70
2019-01-29T20:55:39.694Z,77.60
2019-01-29T20:58:09.369Z,77.50
2019-01-29T21:00:42.553Z,77.70
2019-01-29T21:03:12.938Z,77.70
2019-01-29T21:05:42.655Z,78.30
2019-01-29T21:08:12.248Z,77.70
2019-01-29T21:10:42.000Z,77.60
2019-01-29T21:13:11.606Z,77.90
2019-01-29T21:15:41.288Z,77.90
2019-01-29T21:18:10.908Z,77.80
2019-01-29T21:20:40.530Z,77.90
2019-01-29T21:23:10.133Z,77.90
2019-01-29T21:25:39.728Z,78.20
2019-01-29T21:28:09.448Z,78.20
2019-01-29T21:30:43.665Z,78.00
2019-01-29T21:33:12.232Z,77.90
2019-01-29T21:35:41.817Z,77.60
2019-01-29T21:38:11.566Z,77.70
2019-01-29T21:40:41.244Z,77.90
2019-01-29T21:43:10.859Z,77.60
2019-01-29T21:45:40.448Z,77.40
2019-01-29T21:48:10.134Z,77.00
2019-01-29T21:50:39.735Z,76.80
2019-01-29T21:53:09.328Z,77.00
2019-01-29T21:55:38.972Z,76.90
2019-01-29T21:58:08.542Z,76.80
2019-01-29T22:00:42.670Z,76.60
2019-01-29T22:03:12.300Z,76.50
2019-01-29T22:05:41.858Z,76.40
2019-01-29T22:08:11.638Z,76.50
2019-01-29T22:10:42.832Z,76.60
2019-01-29T22:13:12.418Z,76.50
2019-01-29T22:15:42.036Z,76.20
2019-01-29T22:18:12.081Z,76.00
2019-01-29T22:20:41.821Z,76.30
2019-01-29T22:23:11.495Z,76.10
2019-01-29T22:25:41.132Z,76.10
2019-01-29T22:28:10.835Z,75.80
2019-01-29T22:30:41.623Z,76.10
2019-01-29T22:33:11.258Z,76.20
2019-01-29T22:35:40.966Z,76.20
2019-01-29T22:38:10.567Z,76.00
2019-01-29T22:40:40.218Z,75.90
2019-01-29T22:43:09.886Z,75.60
2019-01-29T22:45:39.528Z,75.70
2019-01-29T22:48:09.203Z,75.50
2019-01-29T22:50:40.645Z,75.00
2019-01-29T22:53:10.312Z,75.70
2019-01-29T22:55:39.937Z,75.70
2019-01-29T22:58:09.880Z,75.80
2019-01-29T23:00:56.022Z,76.00
2019-01-29T23:03:31.761Z,76.10
2019-01-29T23:06:04.290Z,75.80
2019-01-29T23:08:33.910Z,75.60
2019-01-29T23:11:03.537Z,76.20
2019-01-29T23:13:33.213Z,75.80
2019-01-29T23:16:02.895Z,75.90
2019-01-29T23:18:32.530Z,75.60
2019-01-29T23:21:02.124Z,75.80
2019-01-29T23:23:31.802Z,76.00
2019-01-29T23:26:01.462Z,76.10
2019-01-29T23:28:31.126Z,76.00
2019-01-29T23:31:00.796Z,76.10
2019-01-29T23:33:31.647Z,76.20
2019-01-29T23:36:01.274Z,76.30
2019-01-29T23:38:31.952Z,76.30
2019-01-29T23:41:01.623Z,76.10
2019-01-29T23:43:31.345Z,76.20
2019-01-29T23:46:00.948Z,76.50
2019-01-29T23:48:31.542Z,76.50
2019-01-29T23:51:01.167Z,76.30
2019-01-29T23:53:30.828Z,76.50
2019-01-29T23:56:00.451Z,76.30
2019-01-29T23:58:30.118Z,76.30
